National Weather Service United States Department of Commerce

 

Aviation Weather Center TAFs Radar Soundings/Model Data Soaring
NWS Wichita Home Page Hazardous Weather Outlook NWS Graphical Forecasts

 

Wichita (ICT)
Hutchinson (HUT)
Tactical Decision Aid
 
Tactical Decision Aid
 

 
239
FTUS43 KICT 181939 AAA
TAFICT
TAF AMD
KICT 181939Z 1820/1918 16007KT P6SM VCTS BKN035CB
TEMPO 1820/1824 VRB20G35KT 2SM +TSRA
FM190300 04006KT P6SM VCTS SCT025 BKN040CB
FM190900 32008KT P6SM SCT015 BKN025=
 
000
FTUS43 KICT 181943 AAA
TAFHUT
TAF AMD
KHUT 181943Z 1820/1918 35010KT P6SM VCTS BKN035CB
FM190800 32009KT P6SM SCT015 BKN025=
Salina (SLN) Russell (RSL)
Tactical Decision Aid
Tactical Decision Aid

 
000
FTUS43 KICT 181740
TAFSLN
TAF
KSLN 181740Z 1818/1918 18006KT P6SM -RA VCTS SCT025 BKN040CB
TEMPO 1818/1820 VRB10G20KT 2SM +TSRA BKN025CB
FM182100 04008KT P6SM VCTS SCT025 BKN040CB
FM190600 32008KT P6SM SCT015 BKN250=

 
000
FTUS43 KICT 181740
TAFRSL
TAF
KRSL 181740Z 1818/1918 VRB04KT P6SM -RA VCTS SCT009 SCT015 OVC080CB
FM182100 03007KT P6SM VCTS SCT015 BKN030CB
FM190000 33008KT P6SM VCTS SCT015 BKN030CB
FM190200 34010KT P6SM SCT015 BKN025=
Chanute (CNU) Great Bend (GBD)
Tactical Decision Aid
Tactical Decision Aid

 
000
FTUS43 KICT 181740
TAFCNU
TAF
KCNU 181740Z 1818/1918 15006KT P6SM SCT035
FM190000 16007KT P6SM VCTS SCT025 BKN040CB
FM191100 16007KT P6SM SCT015 BKN025=

 
000
FTUS43 KICT 181740
TAFGBD
TAF
KGBD 181740Z 1818/1918 VRB05KT P6SM -RA VCTS SCT015 BKN035CB
TEMPO 1818/1820 VRB10G20KT 2SM +TSRA BKN015CB
FM182000 VRB05KT P6SM VCTS SCT020 BKN035CB
FM190300 34010KT P6SM SCT015 BKN025=
 
NWS Wichita Aviation Forecast Discussion

 

 

IMPORTANT: This page is a tool to help pilots better visualize weather and weather-related hazards, and is not a substitute for a weather briefing obtained from a Flight Service Station (1-800-WXBRIEF). The information contained here does not meet the FAA requirements for a pre-flight weather brief. Therefore, it is important that pilots call and obtain a briefing from an FAA Flight Service Specialist.